Time;durP1;ratioP1;P1;durP2;ratioP2;P2;SDS_P1;SDS_P2;PMS_P1;PMS_P2;Temp;Humidity;BMP_temperature;BMP_pressure;BME280_temperature;BME280_humidity;BME280_pressure;Samples;Min_cycle;Max_cycle;Signal;HPM_P1;HPM_P2
2020/12/26 00:01:40;;;;;;;20.10;9.50;;;2.70;99.90;;;;;;5048566;28;20397;-53
2020/12/26 00:04:05;;;;;;;19.83;9.10;;;1.40;99.90;;;;;;5048157;28;20448;-52
2020/12/26 00:06:31;;;;;;;20.83;9.85;;;1.40;99.90;;;;;;5048167;28;20413;-52
2020/12/26 00:08:57;;;;;;;17.77;10.10;;;3.20;99.90;;;;;;5048348;28;20397;-51
2020/12/26 00:11:23;;;;;;;23.30;16.40;;;1.60;99.90;;;;;;5048478;28;20610;-52
2020/12/26 00:13:49;;;;;;;20.25;11.27;;;1.50;99.90;;;;;;5049595;28;20408;-51
2020/12/26 00:16:16;;;;;;;19.33;10.70;;;2.10;99.90;;;;;;5035034;28;20381;-51
2020/12/26 00:18:42;;;;;;;16.67;9.02;;;1.50;99.90;;;;;;5052789;28;20397;-51
2020/12/26 00:21:10;;;;;;;18.58;9.50;;;1.40;99.90;;;;;;5052121;28;20459;-51
2020/12/26 00:23:36;;;;;;;17.40;9.43;;;2.30;99.90;;;;;;5040115;28;20813;-52
2020/12/26 00:26:02;;;;;;;18.23;9.55;;;4.30;99.90;;;;;;5052174;28;20417;-52
2020/12/26 00:28:28;;;;;;;16.45;9.73;;;4.00;99.90;;;;;;5052191;28;20393;-51
2020/12/26 00:30:54;;;;;;;19.58;9.00;;;1.30;99.90;;;;;;5052684;28;20488;-55
2020/12/26 00:33:19;;;;;;;21.10;10.50;;;1.20;99.90;;;;;;5052803;28;20484;-51
2020/12/26 00:35:45;;;;;;;22.08;10.70;;;3.00;99.90;;;;;;5053195;28;20417;-51
2020/12/26 00:38:11;;;;;;;22.27;9.80;;;2.10;99.90;;;;;;5052690;28;20471;-51
2020/12/26 00:40:36;;;;;;;17.93;9.43;;;1.00;99.90;;;;;;5053478;28;20976;-51
2020/12/26 00:43:02;;;;;;;20.83;10.48;;;1.00;99.90;;;;;;5034778;28;20382;-52
2020/12/26 00:45:27;;;;;;;21.20;10.63;;;1.00;99.90;;;;;;5053268;28;20457;-51
2020/12/26 00:47:53;;;;;;;22.93;10.93;;;0.90;99.90;;;;;;5052942;28;20834;-55
2020/12/26 00:50:19;;;;;;;19.77;10.88;;;3.20;99.90;;;;;;5052686;28;20456;-51
2020/12/26 00:52:44;;;;;;;22.77;11.50;;;0.90;99.90;;;;;;5053172;28;20717;-52
2020/12/26 00:55:10;;;;;;;23.27;13.60;;;2.90;99.90;;;;;;5052323;28;20438;-51
2020/12/26 00:57:36;;;;;;;23.90;11.13;;;0.80;99.90;;;;;;5053150;28;20397;-51
2020/12/26 01:00:04;;;;;;;20.20;11.52;;;3.00;99.90;;;;;;5052249;28;20390;-52
2020/12/26 01:02:29;;;;;;;23.15;11.50;;;0.70;99.90;;;;;;5053181;28;20519;-51
2020/12/26 01:04:55;;;;;;;22.73;11.20;;;3.00;99.90;;;;;;5052418;28;20920;-55
2020/12/26 01:07:20;;;;;;;24.47;11.40;;;0.60;99.90;;;;;;5052219;28;20416;-52
2020/12/26 01:09:46;;;;;;;25.98;10.45;;;2.90;99.90;;;;;;5053255;28;20735;-51
2020/12/26 01:12:12;;;;;;;19.30;10.23;;;3.70;99.90;;;;;;5052150;28;20905;-51
2020/12/26 01:14:37;;;;;;;18.67;10.10;;;1.60;99.90;;;;;;5052898;28;20473;-52
2020/12/26 01:17:03;;;;;;;23.23;10.43;;;0.80;99.90;;;;;;5051829;28;20469;-51
2020/12/26 01:19:28;;;;;;;20.10;9.80;;;0.80;99.90;;;;;;5052627;28;20381;-51
2020/12/26 01:21:54;;;;;;;20.37;10.50;;;3.00;99.90;;;;;;5052502;28;20392;-55
2020/12/26 01:24:21;;;;;;;28.42;12.20;;;0.60;99.90;;;;;;5052393;28;20384;-51
2020/12/26 01:26:51;;;;;;;22.25;10.38;;;0.60;99.90;;;;;;5052079;28;20409;-51
2020/12/26 01:29:17;;;;;;;24.30;11.67;;;0.60;99.90;;;;;;5051645;28;20397;-52
2020/12/26 01:31:48;;;;;;;20.08;11.25;;;3.40;99.90;;;;;;5052602;28;20423;-51
2020/12/26 01:34:13;;;;;;;19.17;10.65;;;2.50;99.90;;;;;;5051852;28;21021;-51
2020/12/26 01:36:39;;;;;;;22.10;12.23;;;0.70;99.90;;;;;;5052610;28;20409;-51
2020/12/26 01:39:05;;;;;;;23.33;12.50;;;2.10;99.90;;;;;;5051589;28;20378;-52
2020/12/26 01:41:30;;;;;;;22.17;12.20;;;0.60;99.90;;;;;;5052221;28;20888;-52
2020/12/26 01:43:58;;;;;;;19.58;11.95;;;2.30;99.90;;;;;;5051607;28;20385;-55
2020/12/26 01:46:31;;;;;;;25.65;12.40;;;0.60;99.90;;;;;;5052093;28;20433;-51
2020/12/26 01:48:58;;;;;;;28.52;12.88;;;0.70;99.90;;;;;;5051795;28;20856;-55
2020/12/26 01:51:26;;;;;;;23.55;11.80;;;1.70;99.90;;;;;;5052069;28;20373;-51
2020/12/26 01:53:53;;;;;;;24.58;12.35;;;0.80;99.90;;;;;;5052347;28;20388;-51
2020/12/26 01:56:19;;;;;;;23.55;12.35;;;0.90;99.90;;;;;;5051365;28;20370;-51
2020/12/26 01:58:45;;;;;;;26.80;13.15;;;0.90;99.90;;;;;;5052096;28;20381;-51
2020/12/26 02:01:11;;;;;;;22.83;12.40;;;1.00;99.90;;;;;;5050615;28;20720;-52
2020/12/26 02:03:39;;;;;;;23.20;12.43;;;3.90;99.90;;;;;;5051790;28;20941;-51
2020/12/26 02:06:06;;;;;;;21.65;12.40;;;1.70;99.90;;;;;;5051045;28;20474;-52
2020/12/26 02:08:31;;;;;;;23.75;13.43;;;4.10;99.90;;;;;;5052000;28;20390;-52
2020/12/26 02:10:57;;;;;;;24.25;13.40;;;0.90;99.90;;;;;;5051025;28;20882;-55
2020/12/26 02:13:23;;;;;;;23.87;13.03;;;0.80;99.90;;;;;;5051688;28;20834;-52
2020/12/26 02:16:05;;;;;;;23.30;13.10;;;1.10;99.90;;;;;;5051773;28;20386;-51
2020/12/26 02:18:34;;;;;;;26.77;14.00;;;0.80;99.90;;;;;;5051998;28;20463;-51
2020/12/26 02:21:03;;;;;;;30.40;14.20;;;0.80;99.90;;;;;;5050913;28;20397;-52
2020/12/26 02:23:29;;;;;;;26.90;14.32;;;3.40;99.90;;;;;;5051410;28;20392;-51
2020/12/26 02:25:58;;;;;;;24.67;13.43;;;0.70;99.90;;;;;;5051192;28;20401;-55
2020/12/26 02:28:24;;;;;;;29.75;14.30;;;0.70;99.90;;;;;;5049926;28;20389;-51
2020/12/26 02:30:51;;;;;;;26.80;14.50;;;1.20;99.90;;;;;;5051060;28;20405;-51
2020/12/26 02:33:17;;;;;;;27.17;13.93;;;3.60;99.90;;;;;;5050511;28;20403;-51
2020/12/26 02:35:49;;;;;;;34.08;15.20;;;0.90;99.90;;;;;;5048530;28;20425;-51
2020/12/26 02:38:18;;;;;;;31.10;14.90;;;2.70;99.90;;;;;;5049469;28;21022;-51
2020/12/26 02:40:49;;;;;;;25.83;13.27;;;0.80;99.90;;;;;;5042162;28;20561;-52
2020/12/26 02:43:20;;;;;;;25.80;13.83;;;1.80;99.90;;;;;;5047585;28;20568;-51
2020/12/26 02:45:46;;;;;;;23.98;13.75;;;0.70;99.90;;;;;;5050330;28;20669;-52
2020/12/26 02:48:12;;;;;;;31.02;14.88;;;0.80;99.90;;;;;;5049384;28;20479;-51
2020/12/26 02:50:37;;;;;;;29.50;15.07;;;3.60;99.90;;;;;;5049835;28;20401;-51
2020/12/26 02:53:03;;;;;;;30.02;14.25;;;0.70;99.90;;;;;;5049655;28;20381;-51
2020/12/26 02:55:29;;;;;;;25.90;13.60;;;2.00;99.90;;;;;;5050706;28;20424;-52
2020/12/26 02:57:54;;;;;;;27.47;13.70;;;0.80;99.90;;;;;;5049224;28;20806;-55
2020/12/26 03:00:20;;;;;;;26.80;13.60;;;3.90;99.90;;;;;;5049878;28;20471;-51
2020/12/26 03:02:45;;;;;;;29.85;14.63;;;3.40;99.90;;;;;;5049072;28;20397;-52
2020/12/26 03:05:11;;;;;;;27.70;13.47;;;1.00;99.90;;;;;;5050019;28;20782;-51
2020/12/26 03:07:37;;;;;;;25.38;12.65;;;1.00;99.90;;;;;;5049363;28;20440;-51
2020/12/26 03:10:03;;;;;;;26.95;12.63;;;1.00;99.90;;;;;;5048269;28;20390;-52
2020/12/26 03:12:29;;;;;;;23.50;12.17;;;1.10;99.90;;;;;;5049185;28;20404;-51
2020/12/26 03:14:55;;;;;;;24.27;12.60;;;4.00;99.90;;;;;;5049938;28;20728;-55
2020/12/26 03:17:20;;;;;;;21.23;11.35;;;2.60;99.90;;;;;;5048811;28;20397;-52
2020/12/26 03:19:46;;;;;;;26.07;12.60;;;1.40;99.90;;;;;;5050578;28;20464;-51
2020/12/26 03:22:11;;;;;;;29.27;12.87;;;1.40;99.90;;;;;;5049653;28;20815;-51
2020/12/26 03:24:37;;;;;;;23.98;13.30;;;1.50;99.90;;;;;;5048717;28;20455;-51
2020/12/26 03:27:03;;;;;;;26.57;12.40;;;3.90;99.90;;;;;;5031922;28;20401;-52
2020/12/26 03:29:28;;;;;;;26.67;13.33;;;3.30;99.90;;;;;;5048781;28;20420;-51
2020/12/26 03:31:54;;;;;;;27.13;12.85;;;1.50;99.90;;;;;;5049865;28;20910;-51
2020/12/26 03:34:20;;;;;;;25.33;11.93;;;2.50;99.90;;;;;;5049572;28;20385;-52
2020/12/26 03:36:45;;;;;;;23.53;11.67;;;1.50;99.90;;;;;;5048390;28;20483;-52
2020/12/26 03:39:11;;;;;;;23.87;12.23;;;2.80;99.90;;;;;;5049201;28;20389;-51
2020/12/26 03:41:36;;;;;;;29.08;13.00;;;1.90;99.90;;;;;;5050332;28;20460;-51
2020/12/26 03:44:02;;;;;;;29.23;13.37;;;1.40;99.90;;;;;;5047476;28;20501;-52
2020/12/26 03:46:28;;;;;;;29.73;12.40;;;3.70;99.90;;;;;;5049473;28;20401;-52
2020/12/26 03:48:53;;;;;;;25.75;12.10;;;4.10;99.90;;;;;;5047806;28;20389;-52
2020/12/26 03:51:19;;;;;;;27.00;11.95;;;2.70;99.90;;;;;;5048401;28;20488;-51
2020/12/26 03:53:45;;;;;;;23.70;13.00;;;2.80;99.90;;;;;;5042434;28;20391;-51
2020/12/26 03:56:20;;;;;;;28.15;13.07;;;1.50;99.90;;;;;;5047194;28;20382;-51
2020/12/26 03:58:46;;;;;;;27.57;13.10;;;4.00;99.90;;;;;;5048733;28;20406;-52
2020/12/26 04:01:12;;;;;;;28.37;13.03;;;4.00;99.90;;;;;;5048805;28;20401;-51
2020/12/26 04:03:38;;;;;;;24.73;11.83;;;1.70;99.90;;;;;;5048627;28;20408;-51
2020/12/26 04:06:04;;;;;;;23.90;11.20;;;1.70;99.90;;;;;;5048556;28;20407;-51
2020/12/26 04:08:30;;;;;;;22.33;12.20;;;2.30;99.90;;;;;;5047974;28;20398;-51
2020/12/26 04:10:56;;;;;;;23.63;12.30;;;1.80;99.90;;;;;;5049495;28;20616;-55
2020/12/26 04:13:22;;;;;;;27.90;12.52;;;4.50;99.90;;;;;;5034033;28;20869;-51
2020/12/26 04:15:48;;;;;;;26.83;12.40;;;1.90;99.90;;;;;;5049075;28;20481;-51
2020/12/26 04:18:13;;;;;;;27.83;12.37;;;4.20;99.90;;;;;;5049104;28;20381;-52
2020/12/26 04:20:39;;;;;;;27.70;12.10;;;1.90;99.90;;;;;;5048526;28;21125;-51
2020/12/26 04:23:04;;;;;;;24.52;12.02;;;2.40;99.90;;;;;;5048830;28;20465;-51
2020/12/26 04:25:30;;;;;;;28.47;11.90;;;2.00;99.90;;;;;;5047962;28;20888;-51
2020/12/26 04:27:57;;;;;;;27.23;12.48;;;2.60;99.90;;;;;;5048414;28;20385;-55
2020/12/26 04:30:23;;;;;;;29.00;12.48;;;1.90;99.90;;;;;;5047851;28;20863;-51
2020/12/26 04:32:49;;;;;;;29.45;12.45;;;4.90;99.90;;;;;;5049766;28;20377;-51
2020/12/26 04:35:18;;;;;;;22.33;11.32;;;2.80;99.90;;;;;;5047039;28;21074;-51
2020/12/26 04:37:43;;;;;;;27.67;12.70;;;2.20;99.90;;;;;;5049302;28;20475;-51
2020/12/26 04:40:09;;;;;;;25.23;11.90;;;2.90;99.90;;;;;;5048126;28;20839;-51
2020/12/26 04:42:35;;;;;;;23.10;12.03;;;2.20;99.90;;;;;;5048559;28;20385;-51
2020/12/26 04:45:00;;;;;;;25.38;12.60;;;4.60;99.90;;;;;;5048360;28;20870;-51
2020/12/26 04:47:32;;;;;;;23.23;12.52;;;3.10;99.90;;;;;;5047817;28;20420;-51
2020/12/26 04:49:59;;;;;;;23.65;11.70;;;4.40;99.90;;;;;;5048803;28;20851;-55
2020/12/26 04:52:30;;;;;;;22.90;11.90;;;4.30;99.90;;;;;;5047786;28;20400;-51
2020/12/26 04:54:56;;;;;;;27.38;12.73;;;4.10;99.90;;;;;;5049545;28;20463;-54
2020/12/26 04:57:22;;;;;;;29.50;12.50;;;2.40;99.90;;;;;;5047143;28;20529;-52
2020/12/26 04:59:48;;;;;;;25.37;12.30;;;4.40;99.90;;;;;;5048994;28;20747;-52
2020/12/26 05:02:15;;;;;;;27.63;12.07;;;2.80;99.90;;;;;;5051844;28;20386;-52
2020/12/26 05:04:43;;;;;;;24.08;11.95;;;3.20;99.90;;;;;;5051835;28;20393;-51
2020/12/26 05:07:11;;;;;;;24.80;12.65;;;4.90;99.90;;;;;;5050845;28;20432;-53
2020/12/26 05:09:37;;;;;;;24.27;12.23;;;2.50;99.90;;;;;;5052562;28;20400;-52
2020/12/26 05:12:03;;;;;;;29.42;13.10;;;3.80;99.90;;;;;;5051935;28;20389;-51
2020/12/26 05:14:30;;;;;;;28.00;13.27;;;2.40;99.90;;;;;;5052538;28;20400;-51
2020/12/26 05:16:57;;;;;;;26.80;12.05;;;2.30;99.90;;;;;;5051902;28;20480;-55
2020/12/26 05:19:23;;;;;;;30.13;13.50;;;4.20;99.90;;;;;;5051920;28;20385;-53
2020/12/26 05:21:53;;;;;;;29.55;13.02;;;4.40;99.90;;;;;;5052514;28;20385;-51
2020/12/26 05:24:19;;;;;;;23.60;13.00;;;2.40;99.90;;;;;;5051691;28;20897;-52
2020/12/26 05:26:47;;;;;;;28.33;12.88;;;2.40;99.90;;;;;;5052456;28;20413;-51
2020/12/26 05:29:14;;;;;;;28.23;13.55;;;2.30;99.90;;;;;;5050488;28;20786;-52
2020/12/26 05:31:55;;;;;;;27.50;13.20;;;5.40;99.90;;;;;;5052127;28;20389;-52
2020/12/26 05:34:22;;;;;;;31.52;14.07;;;4.10;99.90;;;;;;5050336;28;20400;-52
2020/12/26 05:36:48;;;;;;;24.38;12.45;;;4.80;99.90;;;;;;5052121;28;20435;-51
2020/12/26 05:39:14;;;;;;;35.50;14.37;;;2.10;99.90;;;;;;5051497;28;20393;-51
2020/12/26 05:41:44;;;;;;;29.43;12.90;;;2.10;99.90;;;;;;5052060;28;20385;-52
2020/12/26 05:44:11;;;;;;;25.73;12.60;;;5.00;99.90;;;;;;5051403;28;20538;-52
2020/12/26 05:46:37;;;;;;;31.50;13.10;;;3.50;99.90;;;;;;5052187;28;20452;-51
2020/12/26 05:49:41;;;;;;;30.07;12.40;;;5.00;99.90;;;;;;5050920;28;20401;-52
2020/12/26 05:52:08;;;;;;;31.65;13.57;;;3.80;99.90;;;;;;4989577;28;20487;-51
2020/12/26 05:54:34;;;;;;;27.20;12.33;;;4.70;99.90;;;;;;4990251;28;20427;-51
2020/12/26 05:57:13;;;;;;;26.10;12.90;;;1.80;99.90;;;;;;5019216;28;20398;-55
2020/12/26 05:59:41;;;;;;;31.83;14.10;;;4.60;99.90;;;;;;5052030;28;20385;-51
2020/12/26 06:02:16;;;;;;;32.30;14.27;;;1.60;99.90;;;;;;5032890;28;20448;-51
2020/12/26 06:04:52;;;;;;;30.55;13.55;;;3.40;99.90;;;;;;5051760;28;20443;-51
2020/12/26 06:07:35;;;;;;;26.60;12.55;;;1.30;99.90;;;;;;5051028;28;20900;-52
2020/12/26 06:10:05;;;;;;;26.10;12.85;;;1.10;99.90;;;;;;5051025;28;20896;-55
2020/12/26 06:12:31;;;;;;;28.23;13.68;;;3.70;99.90;;;;;;5050811;28;20382;-51
2020/12/26 06:14:58;;;;;;;35.40;13.30;;;3.00;99.90;;;;;;5051714;28;20439;-52
2020/12/26 06:17:26;;;;;;;28.02;13.55;;;2.80;99.90;;;;;;5050867;28;20381;-51
2020/12/26 06:19:58;;;;;;;30.30;13.75;;;1.00;99.90;;;;;;5051620;28;20452;-51
2020/12/26 06:22:23;;;;;;;28.70;13.13;;;0.90;99.90;;;;;;5050866;28;20377;-51
2020/12/26 06:24:49;;;;;;;30.70;13.35;;;3.80;99.90;;;;;;5051380;28;20381;-51
2020/12/26 06:27:15;;;;;;;30.58;12.90;;;2.20;99.90;;;;;;5050519;28;20508;-51
2020/12/26 06:29:44;;;;;;;27.83;12.73;;;1.00;99.90;;;;;;5051432;28;20472;-51
2020/12/26 06:32:14;;;;;;;30.17;12.93;;;1.00;99.90;;;;;;5050704;28;20385;-52
2020/12/26 06:34:41;;;;;;;28.97;13.40;;;3.50;99.90;;;;;;5050976;28;20419;-51
2020/12/26 06:37:10;;;;;;;28.02;12.63;;;0.80;99.90;;;;;;5050481;28;20412;-51
2020/12/26 06:39:36;;;;;;;27.27;12.82;;;0.80;99.90;;;;;;5050078;28;20829;-51
2020/12/26 06:42:23;;;;;;;27.90;13.52;;;0.90;99.90;;;;;;5050147;28;20871;-52
2020/12/26 06:44:49;;;;;;;30.33;13.32;;;0.80;99.90;;;;;;5051142;28;20377;-51
2020/12/26 06:47:37;;;;;;;25.80;12.65;;;2.10;99.90;;;;;;5050338;28;20440;-52
2020/12/26 06:50:22;;;;;;;29.05;13.30;;;0.80;99.90;;;;;;5032512;28;20481;-53
2020/12/26 06:52:48;;;;;;;29.25;12.73;;;0.80;99.90;;;;;;5050100;28;20398;-52
2020/12/26 06:55:42;;;;;;;26.73;13.50;;;3.20;99.90;;;;;;5050277;28;20381;-53
2020/12/26 06:58:24;;;;;;;29.77;13.43;;;0.80;99.90;;;;;;5045488;28;20410;-52
2020/12/26 07:00:50;;;;;;;32.50;13.23;;;0.90;99.90;;;;;;5050826;28;20405;-53
2020/12/26 07:03:21;;;;;;;30.50;13.38;;;3.40;99.90;;;;;;5049259;28;20553;-51
2020/12/26 07:05:48;;;;;;;30.08;13.40;;;3.40;99.90;;;;;;5050409;28;20417;-51
2020/12/26 07:08:21;;;;;;;30.23;13.18;;;2.40;99.90;;;;;;5049465;28;20555;-51
2020/12/26 07:10:46;;;;;;;23.15;12.80;;;1.30;99.90;;;;;;5049234;28;20397;-53
2020/12/26 07:13:42;;;;;;;27.30;12.43;;;3.30;99.90;;;;;;5048909;28;20385;-51
2020/12/26 07:16:36;;;;;;;25.38;12.27;;;1.40;99.90;;;;;;5040874;28;20488;-52
2020/12/26 07:19:23;;;;;;;28.58;11.73;;;1.40;99.90;;;;;;5049634;28;20386;-52
2020/12/26 07:22:03;;;;;;;24.58;13.30;;;1.70;99.90;;;;;;5049275;28;20867;-52
2020/12/26 07:24:37;;;;;;;23.48;11.65;;;1.70;99.90;;;;;;5049982;28;20496;-53
2020/12/26 07:27:21;;;;;;;25.85;12.20;;;1.90;99.90;;;;;;5047625;28;20415;-52
2020/12/26 07:29:54;;;;;;;26.73;11.98;;;2.60;99.90;;;;;;5050044;28;20385;-52
2020/12/26 07:32:42;;;;;;;22.05;11.10;;;2.10;99.90;;;;;;5045505;28;20417;-51
2020/12/26 07:35:23;;;;;;;21.25;11.13;;;4.20;99.90;;;;;;5046894;28;20405;-52
2020/12/26 07:37:51;;;;;;;28.70;12.05;;;2.70;99.90;;;;;;5047370;28;20947;-52
2020/12/26 07:40:18;;;;;;;24.05;11.75;;;2.00;99.90;;;;;;5047358;28;21271;-52
2020/12/26 07:42:44;;;;;;;27.52;11.55;;;2.00;99.90;;;;;;5048311;28;20851;-52
2020/12/26 07:45:15;;;;;;;24.05;11.70;;;3.90;99.90;;;;;;5047259;28;20451;-53
2020/12/26 07:47:42;;;;;;;22.00;10.50;;;1.80;99.90;;;;;;5049493;28;20409;-52
2020/12/26 07:50:09;;;;;;;23.83;11.07;;;4.30;99.90;;;;;;5048502;28;20992;-53
2020/12/26 07:52:35;;;;;;;22.33;10.52;;;1.90;99.90;;;;;;5047950;28;20393;-51
2020/12/26 07:55:02;;;;;;;26.60;11.00;;;1.90;99.90;;;;;;5048516;28;20428;-57
2020/12/26 07:57:28;;;;;;;20.02;9.57;;;4.00;99.90;;;;;;5048579;28;20400;-58
2020/12/26 07:59:55;;;;;;;22.85;9.57;;;3.40;99.90;;;;;;5048409;28;20867;-52
2020/12/26 08:02:20;;;;;;;19.50;10.55;;;2.00;99.90;;;;;;5047170;28;20405;-52
2020/12/26 08:04:47;;;;;;;19.77;9.77;;;3.30;99.90;;;;;;5048589;28;20393;-51
2020/12/26 08:07:15;;;;;;;22.20;10.85;;;2.10;99.90;;;;;;5046008;28;20420;-52
2020/12/26 08:09:54;;;;;;;20.98;10.65;;;2.20;99.90;;;;;;5045893;28;20493;-52
2020/12/26 08:12:21;;;;;;;23.00;10.80;;;2.30;99.90;;;;;;5045297;28;20397;-52
2020/12/26 08:15:00;;;;;;;21.58;10.48;;;2.40;99.90;;;;;;5046395;28;20385;-52
2020/12/26 08:17:30;;;;;;;21.35;10.07;;;2.60;99.90;;;;;;5045990;28;20409;-52
2020/12/26 08:19:59;;;;;;;23.52;10.70;;;3.70;99.90;;;;;;5047645;28;20405;-52
2020/12/26 08:22:26;;;;;;;23.27;10.43;;;2.70;99.90;;;;;;5047764;28;20400;-51
2020/12/26 08:25:08;;;;;;;19.70;8.82;;;5.60;99.90;;;;;;5047572;28;20393;-51
2020/12/26 08:27:34;;;;;;;20.33;9.45;;;4.40;99.90;;;;;;5048179;28;20405;-56
2020/12/26 08:30:04;;;;;;;19.03;9.50;;;3.50;99.90;;;;;;5046376;28;20816;-56
2020/12/26 08:32:35;;;;;;;17.58;9.20;;;2.70;99.90;;;;;;5048261;28;20412;-52
2020/12/26 08:35:03;;;;;;;19.27;9.38;;;2.70;99.90;;;;;;5046550;28;20492;-52
2020/12/26 08:37:32;;;;;;;19.85;10.10;;;2.70;99.90;;;;;;5051028;28;20401;-50
2020/12/26 08:40:03;;;;;;;19.52;9.10;;;3.50;99.90;;;;;;5051629;28;20389;-57
2020/12/26 08:42:29;;;;;;;18.70;8.60;;;2.90;99.90;;;;;;5051095;28;20774;-53
2020/12/26 08:44:55;;;;;;;20.15;8.57;;;5.10;99.90;;;;;;5052377;28;20384;-52
2020/12/26 08:47:32;;;;;;;18.77;7.93;;;3.80;99.90;;;;;;5050018;28;20424;-54
2020/12/26 08:49:58;;;;;;;16.58;9.68;;;3.70;99.90;;;;;;5052106;28;20450;-57
2020/12/26 08:52:25;;;;;;;13.60;7.95;;;4.00;99.90;;;;;;5050347;28;20433;-51
2020/12/26 08:55:16;;;;;;;15.15;7.85;;;4.40;99.90;;;;;;5051560;28;20397;-51
2020/12/26 08:57:56;;;;;;;15.75;7.55;;;4.50;99.90;;;;;;5050778;28;20472;-51
2020/12/26 09:00:22;;;;;;;16.40;7.60;;;4.60;99.90;;;;;;5050074;28;20451;-52
2020/12/26 09:02:53;;;;;;;18.85;8.88;;;4.90;99.90;;;;;;5051179;28;20795;-51
2020/12/26 09:05:24;;;;;;;14.77;7.60;;;5.00;99.90;;;;;;5051160;28;20563;-52
2020/12/26 09:08:11;;;;;;;16.30;9.35;;;5.00;99.90;;;;;;5046086;28;20770;-52
2020/12/26 09:10:38;;;;;;;20.15;9.85;;;5.30;99.90;;;;;;5050436;28;20405;-51
2020/12/26 09:13:13;;;;;;;17.52;9.70;;;5.30;99.90;;;;;;5051710;28;20409;-52
2020/12/26 09:15:54;;;;;;;19.02;10.40;;;5.10;99.90;;;;;;5050665;28;20393;-52
2020/12/26 09:18:25;;;;;;;19.95;10.02;;;5.20;99.90;;;;;;5049721;28;20373;-50
2020/12/26 09:21:00;;;;;;;19.35;10.07;;;5.90;99.90;;;;;;5051991;28;20361;-51
2020/12/26 09:23:32;;;;;;;15.50;8.45;;;6.70;99.90;;;;;;5049396;28;20831;-51
2020/12/26 09:26:28;;;;;;;16.93;7.87;;;5.80;99.90;;;;;;5047279;28;20420;-52
2020/12/26 09:29:01;;;;;;;17.83;8.77;;;4.80;99.90;;;;;;5042259;28;20401;-51
2020/12/26 09:31:28;;;;;;;15.07;8.38;;;3.80;99.90;;;;;;5051490;28;20490;-52
2020/12/26 09:33:56;;;;;;;18.75;9.27;;;5.90;99.90;;;;;;5050360;28;20405;-52
2020/12/26 09:36:24;;;;;;;18.05;9.00;;;3.90;99.90;;;;;;5049861;28;20537;-52
2020/12/26 09:38:50;;;;;;;16.83;8.50;;;3.70;99.90;;;;;;5050563;28;20474;-52
2020/12/26 09:41:18;;;;;;;22.17;14.70;;;3.60;99.90;;;;;;5050365;28;20742;-51
2020/12/26 09:43:46;;;;;;;16.02;8.88;;;3.60;99.90;;;;;;5050336;28;20444;-51
2020/12/26 09:46:12;;;;;;;15.32;8.15;;;3.50;99.90;;;;;;5049725;28;20405;-51
2020/12/26 09:48:38;;;;;;;16.27;8.75;;;3.50;99.90;;;;;;5050276;28;20412;-50
2020/12/26 09:51:09;;;;;;;15.55;8.25;;;4.00;99.90;;;;;;5050647;28;20381;-49
2020/12/26 09:53:35;;;;;;;19.52;12.40;;;3.70;99.90;;;;;;5050052;28;20389;-51
2020/12/26 09:56:00;;;;;;;16.80;8.70;;;3.40;99.90;;;;;;5048601;28;20404;-56
2020/12/26 09:58:26;;;;;;;15.00;7.50;;;6.30;99.90;;;;;;5049552;28;20394;-52
2020/12/26 10:00:52;;;;;;;15.32;8.30;;;5.50;99.90;;;;;;5031111;28;20420;-51
2020/12/26 10:03:17;;;;;;;15.80;8.47;;;5.80;99.90;;;;;;5048205;28;20398;-51
2020/12/26 10:05:43;;;;;;;18.60;9.20;;;3.70;99.90;;;;;;5050096;28;20374;-51
2020/12/26 10:08:08;;;;;;;14.35;7.43;;;3.10;99.90;;;;;;5047739;28;20483;-53
2020/12/26 10:10:34;;;;;;;13.67;8.67;;;3.90;99.90;;;;;;5050557;28;20780;-51
2020/12/26 10:12:59;;;;;;;17.00;10.32;;;3.20;99.90;;;;;;5048542;28;20472;-56
2020/12/26 10:15:25;;;;;;;14.50;8.77;;;3.40;99.90;;;;;;5050619;28;20386;-52
2020/12/26 10:17:51;;;;;;;17.97;8.47;;;5.80;99.90;;;;;;5049267;28;20401;-52
2020/12/26 10:20:16;;;;;;;13.20;7.10;;;4.10;99.90;;;;;;5049464;28;20397;-51
2020/12/26 10:22:42;;;;;;;12.30;7.40;;;3.20;99.90;;;;;;5050708;28;20412;-51
2020/12/26 10:25:08;;;;;;;14.30;8.73;;;3.80;99.90;;;;;;5048423;28;20483;-52
2020/12/26 10:27:33;;;;;;;15.85;9.02;;;3.50;99.90;;;;;;5048994;28;20412;-52
2020/12/26 10:29:59;;;;;;;15.57;7.85;;;5.80;99.90;;;;;;5049299;28;20390;-56
2020/12/26 10:32:25;;;;;;;18.60;9.23;;;3.70;99.90;;;;;;5049391;28;20398;-52
2020/12/26 10:34:50;;;;;;;23.20;10.50;;;5.10;99.90;;;;;;5049029;28;20404;-52
2020/12/26 10:37:16;;;;;;;18.80;10.23;;;3.90;99.90;;;;;;5049037;28;20410;-56
2020/12/26 10:39:42;;;;;;;17.67;8.50;;;4.90;99.90;;;;;;5050292;28;20384;-56
2020/12/26 10:42:08;;;;;;;16.13;8.38;;;4.20;99.90;;;;;;5048213;28;20419;-56
2020/12/26 10:44:34;;;;;;;16.48;10.35;;;4.60;99.90;;;;;;5046284;28;20839;-58
2020/12/26 10:47:00;;;;;;;19.33;11.45;;;4.60;99.90;;;;;;5049037;28;20424;-60
2020/12/26 10:49:25;;;;;;;14.73;8.83;;;4.80;99.90;;;;;;5044851;28;20409;-56
2020/12/26 10:51:51;;;;;;;14.43;7.97;;;5.60;99.90;;;;;;5050219;28;20378;-57
2020/12/26 10:54:16;;;;;;;12.70;7.28;;;6.40;99.90;;;;;;5048004;28;20389;-57
2020/12/26 10:56:48;;;;;;;17.23;8.10;;;5.60;99.90;;;;;;5049911;28;20859;-57
2020/12/26 10:59:15;;;;;;;15.55;7.85;;;4.90;99.90;;;;;;5049029;28;20388;-56
2020/12/26 11:01:41;;;;;;;14.73;7.65;;;5.00;99.90;;;;;;5048429;28;20539;-57
2020/12/26 11:04:07;;;;;;;16.55;8.00;;;6.10;99.90;;;;;;5049478;28;20384;-52
2020/12/26 11:06:33;;;;;;;14.07;7.38;;;5.20;99.90;;;;;;5047268;28;20834;-53
2020/12/26 11:08:58;;;;;;;13.68;7.25;;;5.10;99.90;;;;;;5048946;28;20816;-57
2020/12/26 11:11:24;;;;;;;12.83;7.30;;;4.90;99.90;;;;;;5048013;28;20410;-53
2020/12/26 11:13:50;;;;;;;13.90;7.33;;;5.10;99.90;;;;;;5049303;28;20417;-52
2020/12/26 11:16:17;;;;;;;14.83;7.60;;;5.90;99.90;;;;;;5047863;28;20870;-52
2020/12/26 11:18:44;;;;;;;14.27;7.85;;;6.30;99.90;;;;;;5048839;28;20490;-52
2020/12/26 11:21:15;;;;;;;13.77;7.20;;;5.70;99.90;;;;;;5046746;28;20401;-52
2020/12/26 11:23:41;;;;;;;14.52;6.97;;;5.10;99.90;;;;;;5049874;28;20443;-53
2020/12/26 11:26:06;;;;;;;15.95;8.40;;;6.90;99.90;;;;;;5046601;28;20416;-52
2020/12/26 11:28:32;;;;;;;14.50;7.53;;;5.10;99.90;;;;;;5048777;28;20794;-52
2020/12/26 11:30:58;;;;;;;13.30;7.40;;;5.20;99.90;;;;;;5047319;28;20436;-56
2020/12/26 11:33:23;;;;;;;15.80;8.05;;;5.00;99.90;;;;;;5048800;28;20385;-52
2020/12/26 11:35:49;;;;;;;12.70;6.47;;;5.00;99.90;;;;;;5049393;28;20743;-52
2020/12/26 11:38:15;;;;;;;12.00;6.80;;;5.90;99.90;;;;;;5047133;28;20409;-53
2020/12/26 11:40:40;;;;;;;17.70;11.70;;;4.90;99.90;;;;;;5048826;28;20383;-52
2020/12/26 11:43:06;;;;;;;20.27;14.60;;;4.70;99.90;;;;;;5047127;28;20406;-52
2020/12/26 11:45:32;;;;;;;16.90;8.40;;;4.80;99.90;;;;;;5049367;28;20409;-52
2020/12/26 11:47:57;;;;;;;16.15;8.88;;;5.10;99.90;;;;;;5048002;28;20496;-55
2020/12/26 11:50:23;;;;;;;14.63;10.30;;;5.20;99.90;;;;;;5046447;28;20409;-52
2020/12/26 11:52:48;;;;;;;17.27;9.70;;;5.10;99.90;;;;;;5047353;28;20786;-53
2020/12/26 11:55:14;;;;;;;16.90;9.13;;;5.90;99.90;;;;;;5047394;28;20397;-52
2020/12/26 11:57:40;;;;;;;16.33;7.43;;;5.30;99.90;;;;;;5049326;28;20395;-52
2020/12/26 12:00:05;;;;;;;12.30;7.18;;;5.50;99.90;;;;;;5048024;28;20401;-53
2020/12/26 12:02:31;;;;;;;12.27;7.07;;;5.50;99.90;;;;;;5049174;28;20740;-54
2020/12/26 12:04:56;;;;;;;13.63;6.90;;;5.40;99.90;;;;;;5047927;28;20401;-51
2020/12/26 12:07:22;;;;;;;15.00;6.53;;;3.20;99.90;;;;;;5048246;28;20737;-51
2020/12/26 12:09:47;;;;;;;13.50;6.40;;;6.80;99.90;;;;;;5048380;28;20412;-52
2020/12/26 12:12:13;;;;;;;12.40;6.40;;;7.70;99.90;;;;;;5051770;28;20420;-52
2020/12/26 12:14:39;;;;;;;12.93;6.67;;;7.50;99.90;;;;;;5052835;28;20423;-53
2020/12/26 12:17:04;;;;;;;13.77;6.68;;;7.00;99.90;;;;;;5051939;28;20420;-52
2020/12/26 12:19:30;;;;;;;12.23;6.40;;;5.80;99.90;;;;;;5052277;28;20417;-52
2020/12/26 12:21:55;;;;;;;11.35;5.82;;;5.70;99.90;;;;;;5051982;28;20547;-52
2020/12/26 12:24:21;;;;;;;13.27;6.70;;;5.60;99.90;;;;;;5052216;28;20953;-53
2020/12/26 12:26:47;;;;;;;13.70;6.83;;;6.00;99.90;;;;;;5051395;28;20432;-52
2020/12/26 12:29:12;;;;;;;13.25;6.28;;;5.50;99.90;;;;;;5051962;28;20385;-52
2020/12/26 12:31:39;;;;;;;14.07;6.80;;;5.70;99.90;;;;;;5051489;28;20409;-52
2020/12/26 12:34:05;;;;;;;15.65;8.05;;;5.40;99.90;;;;;;5034382;28;20381;-52
2020/12/26 12:36:32;;;;;;;15.82;7.57;;;5.70;99.90;;;;;;5052343;28;20443;-54
2020/12/26 12:38:57;;;;;;;16.08;7.80;;;5.80;99.90;;;;;;5052510;28;20393;-52
2020/12/26 12:41:23;;;;;;;11.43;6.30;;;6.50;99.90;;;;;;5047746;28;20397;-52
2020/12/26 12:43:49;;;;;;;14.15;7.35;;;7.70;99.90;;;;;;5050938;28;20478;-53
2020/12/26 12:46:15;;;;;;;18.58;8.77;;;5.70;99.90;;;;;;5052497;28;20898;-52